Larissa , Thessalia , Greece
39° 38' 00"N, 22° 25' 00"E, Elevation 263 ft.
Χειμερινή Time

Hourly observations for the last 48 hours

Date

Time

Temperature (°C) Humi-
dity
(%)
Wind
(kmph)
Pressure Rain (mm) Sun
(W/m2)
UV ET
(mm)
Air Dew 6 Hour 1 Hr 3 Hr 6 Hr Day
Alt
(in)
Sea
Level
(mb)
Max Min
28 19:00 12.9 10.5 85 E 3 G 8 29.92 1013.2 0.20 0 0.0 1.803
28 18:00 14.9 11.3 79 E 3 G 11 29.90 1012.6 0.20 22 0.0 1.803
28 17:00 17.7 12.2 70 E 4 G 11 29.90 1012.4 0.20 190 0.0 1.753
28 16:00 18.7 11.7 64 ESE 2 G 8 29.91 1012.9 0.20 362 0.0 1.600
28 15:00 18.2 11.3 64 ESE 3 G 6 29.93 1013.4 0.20 510 0.0 1.372
28 14:00 17.1 10.9 17.3 7.4 67 SE 3 G 8 29.95 1014.2 0.20 593 0.0 1.092
28 13:00 15.3 11.1 76 W 3 G 6 29.98 1015.3 0.20 637 0.0 0.813
28 12:00 13.3 10.8 85 NNE 2 G 9 30.00 1016.1 0.20 616 0.0 0.533
28 11:00 11.8 9.7 87 W 4 G 8 30.02 1016.6 0.20 538 0.0 0.279
28 10:00 8.6 8.3 98 SW 3 G 6 30.03 1017.0 0.20 424 0.0 0.102
28 09:00 7.6 7.2 97 SW 1 G 3 30.03 1017.1 0.20 126 0.0 0.025
28 08:00 7.6 6.9 9.9 6.6 95 SSW 3 G 4 30.02 1016.8 0.20 0.20 0.20 42 0.0 0.000
28 07:00 6.6 5.4 92 Calm 30.01 1016.2 0.20 0.20 0 0.0 0.000
28 06:00 6.6 5.6 93 Calm 30.00 1016.0 0.00 0 0.0 0.000
28 05:00 7.3 6.1 92 SSW 3 G 4 30.00 1015.8 0.00 0 0.0 0.000
28 04:00 8.2 7.0 92 Calm 29.99 1015.7 0.00 0 0.0 0.000
28 03:00 9.5 8.4 93 Calm 30.00 1016.0 0.00 0 0.0 0.000
28 02:00 9.9 8.8 13.8 9.9 93 Calm 30.02 1016.5 0.00 0 0.0 0.000
28 01:00 10.2 9.1 93 Calm 30.03 1016.9 0.00 0 0.0 0.000
28 00:00 10.6 9.3 92 Calm 30.03 1017.1 0.00 0 0.0 0.000
27 23:00 10.6 9.5 93 Calm 30.03 1017.1 0.20 0 0.0 1.499
27 22:00 10.8 9.4 91 SSW 1 G 3 30.04 1017.3 0.20 0 0.0 1.499
27 21:00 11.6 9.6 88 ESE 1 G 4 30.03 1017.0 0.20 0 0.0 1.499
27 20:00 13.5 10.1 17.0 13.5 80 Calm 30.02 1016.7 0.00 0 0.0 1.473
27 19:00 14.8 9.8 72 Calm 30.02 1016.6 0.00 0 0.0 1.448
27 18:00 15.7 10.0 69 SW 2 G 5 30.02 1016.5 0.00 20 0.0 1.448
27 17:00 16.7 10.7 68 SW 2 G 6 30.01 1016.4 0.00 175 0.0 1.397
27 16:00 17.0 10.8 67 NW 3 G 10 30.02 1016.6 0.00 356 0.0 1.270
27 15:00 16.7 11.0 69 WSW 5 G 10 30.03 1017.1 0.00 461 0.0 1.041
27 14:00 16.1 11.1 16.1 10.4 72 SW 6 G 15 30.06 1017.8 0.00 547 0.0 0.787
27 13:00 14.8 10.6 76 SW 5 G 8 30.08 1018.6 0.00 273 0.0 0.584
27 12:00 14.1 10.8 81 WSW 3 G 8 30.10 1019.3 0.00 348 0.0 0.406
27 11:00 13.1 10.8 86 SW 3 G 8 30.12 1019.9 0.00 272 0.0 0.228
27 10:00 11.7 10.9 95 SW 2 G 6 30.12 1020.1 0.00 275 0.0 0.101
27 09:00 10.6 10.2 97 SW 2 G 5 30.13 1020.3 0.00 75 0.0 0.025
27 08:00 10.4 9.9 11.1 10.3 97 NNE 2 G 6 30.12 1020.1 0.00 12 0.0 0.000
27 07:00 10.4 9.9 97 NNE 0 G 3 30.12 1020.0 0.00 0 0.0 0.000
27 06:00 10.4 9.8 96 NNE 0 G 3 30.12 1019.8 0.00 0 0.0 0.000
27 05:00 10.4 9.7 95 NNE 0 G 3 30.12 1019.8 0.00 0 0.0 0.000
27 04:00 10.6 9.6 94 Calm 30.12 1019.8 0.00 0 0.0 0.000
27 03:00 10.8 9.7 93 Calm 30.13 1020.3 0.00 0 0.0 0.000
27 02:00 10.9 9.8 11.4 10.7 93 NNE 0 G 3 30.13 1020.4 0.00 0 0.0 0.000
27 01:00 10.9 9.8 93 Calm 30.13 1020.4 0.00 0 0.0 0.000
27 00:00 11.1 9.6 91 NE 2 G 6 30.14 1020.8 0.00 0 0.0 0.432
26 23:00 11.1 9.7 91 Calm 30.16 1021.2 0.80 0 0.0 0.429
26 22:00 11.1 9.6 91 Calm 30.16 1021.4 0.80 0 0.0 0.429
26 21:00 11.3 9.9 91 E 3 G 8 30.16 1021.4 0.80 0 0.0 0.429
26 20:00 11.3 9.7 12.3 11.3 90 ESE 3 G 6 30.16 1021.4 0.80 0 0.0 0.429

Data generated by WxSolution Version 1.8.4.2, Build 2009.03.29.